sensor_id;sensor_type;location;lat;lon;timestamp;pressure;altitude;pressure_sealevel;temperature;humidity
13732;BME280;6937;56.096;12.664;2023-04-30T00:01:58;101416.91;;;7.05;100.00
13732;BME280;6937;56.096;12.664;2023-04-30T00:04:23;101416.13;;;7.03;100.00
13732;BME280;6937;56.096;12.664;2023-04-30T00:06:49;101433.00;;;7.02;100.00
13732;BME280;6937;56.096;12.664;2023-04-30T00:09:14;101434.72;;;7.03;100.00
13732;BME280;6937;56.096;12.664;2023-04-30T00:11:40;101423.22;;;7.03;100.00
13732;BME280;6937;56.096;12.664;2023-04-30T00:14:05;101434.66;;;7.05;100.00
13732;BME280;6937;56.096;12.664;2023-04-30T00:16:30;101435.66;;;7.02;100.00
13732;BME280;6937;56.096;12.664;2023-04-30T00:18:56;101431.25;;;7.01;100.00
13732;BME280;6937;56.096;12.664;2023-04-30T00:21:21;101434.00;;;7.00;100.00
13732;BME280;6937;56.096;12.664;2023-04-30T00:23:47;101431.41;;;6.98;100.00
13732;BME280;6937;56.096;12.664;2023-04-30T00:26:12;101435.81;;;6.99;100.00
13732;BME280;6937;56.096;12.664;2023-04-30T00:28:37;101433.09;;;7.01;100.00
13732;BME280;6937;56.096;12.664;2023-04-30T00:31:03;101430.50;;;6.99;100.00
13732;BME280;6937;56.096;12.664;2023-04-30T00:33:31;101436.00;;;6.95;100.00
13732;BME280;6937;56.096;12.664;2023-04-30T00:35:56;101445.72;;;6.96;100.00
13732;BME280;6937;56.096;12.664;2023-04-30T00:38:21;101437.75;;;6.96;100.00
13732;BME280;6937;56.096;12.664;2023-04-30T00:40:47;101426.25;;;6.95;100.00
13732;BME280;6937;56.096;12.664;2023-04-30T00:43:13;101443.06;;;6.96;100.00
13732;BME280;6937;56.096;12.664;2023-04-30T00:45:38;101450.16;;;6.95;100.00
13732;BME280;6937;56.096;12.664;2023-04-30T00:48:04;101458.06;;;6.97;100.00
13732;BME280;6937;56.096;12.664;2023-04-30T00:50:30;101450.00;;;6.98;100.00
13732;BME280;6937;56.096;12.664;2023-04-30T00:52:55;101449.97;;;7.00;100.00
13732;BME280;6937;56.096;12.664;2023-04-30T00:55:21;101453.63;;;6.97;100.00
13732;BME280;6937;56.096;12.664;2023-04-30T00:57:47;101450.97;;;6.97;100.00
13732;BME280;6937;56.096;12.664;2023-04-30T01:00:13;101464.25;;;6.97;100.00
13732;BME280;6937;56.096;12.664;2023-04-30T01:02:39;101463.44;;;6.95;100.00
13732;BME280;6937;56.096;12.664;2023-04-30T01:05:06;101456.41;;;6.94;100.00
13732;BME280;6937;56.096;12.664;2023-04-30T01:07:32;101460.03;;;6.93;100.00
13732;BME280;6937;56.096;12.664;2023-04-30T01:09:58;101473.16;;;6.96;100.00
13732;BME280;6937;56.096;12.664;2023-04-30T01:12:43;101474.88;;;6.97;100.00
13732;BME280;6937;56.096;12.664;2023-04-30T01:15:18;101474.94;;;6.96;100.00
13732;BME280;6937;56.096;12.664;2023-04-30T01:17:53;101479.25;;;6.98;100.00
13732;BME280;6937;56.096;12.664;2023-04-30T01:20:20;101489.88;;;6.98;100.00
13732;BME280;6937;56.096;12.664;2023-04-30T01:23:10;101474.94;;;6.96;100.00
13732;BME280;6937;56.096;12.664;2023-04-30T01:25:43;101476.75;;;6.95;100.00
13732;BME280;6937;56.096;12.664;2023-04-30T01:28:14;101479.53;;;6.92;100.00
13732;BME280;6937;56.096;12.664;2023-04-30T01:30:41;101488.22;;;6.96;100.00
13732;BME280;6937;56.096;12.664;2023-04-30T01:33:09;101489.16;;;6.95;100.00
13732;BME280;6937;56.096;12.664;2023-04-30T01:43:53;101490.03;;;6.95;100.00
13732;BME280;6937;56.096;12.664;2023-04-30T01:46:23;101487.38;;;6.95;100.00
13732;BME280;6937;56.096;12.664;2023-04-30T01:48:57;101484.00;;;6.92;100.00
13732;BME280;6937;56.096;12.664;2023-04-30T01:51:41;101488.44;;;6.91;100.00
13732;BME280;6937;56.096;12.664;2023-04-30T01:56:51;101478.88;;;6.87;100.00
13732;BME280;6937;56.096;12.664;2023-04-30T01:59:18;101491.25;;;6.88;100.00
13732;BME280;6937;56.096;12.664;2023-04-30T02:01:43;101493.91;;;6.88;100.00
13732;BME280;6937;56.096;12.664;2023-04-30T02:04:09;101490.44;;;6.86;100.00
13732;BME280;6937;56.096;12.664;2023-04-30T02:06:34;101485.13;;;6.86;100.00
13732;BME280;6937;56.096;12.664;2023-04-30T02:09:00;101493.84;;;6.90;100.00
13732;BME280;6937;56.096;12.664;2023-04-30T02:11:30;101497.41;;;6.89;100.00
13732;BME280;6937;56.096;12.664;2023-04-30T02:13:55;101496.56;;;6.88;100.00
13732;BME280;6937;56.096;12.664;2023-04-30T02:16:21;101488.44;;;6.91;100.00
13732;BME280;6937;56.096;12.664;2023-04-30T02:18:46;101492.16;;;6.87;100.00
13732;BME280;6937;56.096;12.664;2023-04-30T02:21:12;101492.38;;;6.82;100.00
13732;BME280;6937;56.096;12.664;2023-04-30T02:23:38;101501.34;;;6.80;100.00
13732;BME280;6937;56.096;12.664;2023-04-30T02:26:03;101505.66;;;6.82;100.00
13732;BME280;6937;56.096;12.664;2023-04-30T02:28:29;101499.50;;;6.82;100.00
13732;BME280;6937;56.096;12.664;2023-04-30T02:30:54;101501.44;;;6.78;100.00
13732;BME280;6937;56.096;12.664;2023-04-30T02:33:20;101504.81;;;6.82;100.00
13732;BME280;6937;56.096;12.664;2023-04-30T02:35:45;101519.88;;;6.82;100.00
13732;BME280;6937;56.096;12.664;2023-04-30T02:38:10;101520.03;;;6.78;100.00
13732;BME280;6937;56.096;12.664;2023-04-30T02:40:36;101511.91;;;6.82;100.00
13732;BME280;6937;56.096;12.664;2023-04-30T02:43:01;101519.03;;;6.81;100.00
13732;BME280;6937;56.096;12.664;2023-04-30T02:45:26;101522.75;;;6.77;100.00
13732;BME280;6937;56.096;12.664;2023-04-30T02:47:52;101528.06;;;6.77;100.00
13732;BME280;6937;56.096;12.664;2023-04-30T02:50:17;101532.38;;;6.79;100.00
13732;BME280;6937;56.096;12.664;2023-04-30T02:52:44;101523.66;;;6.76;100.00
13732;BME280;6937;56.096;12.664;2023-04-30T02:55:10;101531.78;;;6.73;100.00
13732;BME280;6937;56.096;12.664;2023-04-30T02:57:35;101537.81;;;6.76;100.00
13732;BME280;6937;56.096;12.664;2023-04-30T03:00:01;101526.31;;;6.76;100.00
13732;BME280;6937;56.096;12.664;2023-04-30T03:02:26;101545.72;;;6.78;100.00
13732;BME280;6937;56.096;12.664;2023-04-30T03:04:52;101542.94;;;6.81;100.00
13732;BME280;6937;56.096;12.664;2023-04-30T03:07:17;101536.59;;;6.84;100.00
13732;BME280;6937;56.096;12.664;2023-04-30T03:09:42;101532.94;;;6.86;100.00
13732;BME280;6937;56.096;12.664;2023-04-30T03:12:08;101541.59;;;6.91;100.00
13732;BME280;6937;56.096;12.664;2023-04-30T03:14:33;101537.13;;;6.92;100.00
13732;BME280;6937;56.096;12.664;2023-04-30T03:16:58;101534.53;;;6.90;100.00
13732;BME280;6937;56.096;12.664;2023-04-30T03:19:24;101516.88;;;6.89;100.00
13732;BME280;6937;56.096;12.664;2023-04-30T03:21:53;101538.25;;;6.86;100.00
13732;BME280;6937;56.096;12.664;2023-04-30T03:24:19;101545.31;;;6.87;100.00
13732;BME280;6937;56.096;12.664;2023-04-30T03:26:45;101532.88;;;6.88;100.00
13732;BME280;6937;56.096;12.664;2023-04-30T03:29:10;101543.72;;;6.83;100.00
13732;BME280;6937;56.096;12.664;2023-04-30T03:31:36;101552.16;;;6.72;100.00
13732;BME280;6937;56.096;12.664;2023-04-30T03:34:01;101538.34;;;6.64;100.00
13732;BME280;6937;56.096;12.664;2023-04-30T03:36:26;101556.06;;;6.64;100.00
13732;BME280;6937;56.096;12.664;2023-04-30T03:38:52;101557.75;;;6.66;100.00
13732;BME280;6937;56.096;12.664;2023-04-30T03:41:18;101562.78;;;6.72;100.00
13732;BME280;6937;56.096;12.664;2023-04-30T03:43:43;101568.69;;;6.79;100.00
13732;BME280;6937;56.096;12.664;2023-04-30T03:46:09;101579.72;;;6.90;100.00
13732;BME280;6937;56.096;12.664;2023-04-30T03:48:34;101576.06;;;6.93;100.00
13732;BME280;6937;56.096;12.664;2023-04-30T03:51:00;101580.44;;;6.94;100.00
13732;BME280;6937;56.096;12.664;2023-04-30T03:53:25;101572.53;;;6.92;100.00
13732;BME280;6937;56.096;12.664;2023-04-30T03:55:52;101573.59;;;6.88;100.00
13732;BME280;6937;56.096;12.664;2023-04-30T03:58:17;101579.13;;;6.84;100.00
13732;BME280;6937;56.096;12.664;2023-04-30T04:00:43;101573.03;;;6.82;100.00
13732;BME280;6937;56.096;12.664;2023-04-30T04:03:10;101577.38;;;6.82;100.00
13732;BME280;6937;56.096;12.664;2023-04-30T04:05:36;101573.91;;;6.82;100.00
13732;BME280;6937;56.096;12.664;2023-04-30T04:08:01;101569.50;;;6.81;100.00
13732;BME280;6937;56.096;12.664;2023-04-30T04:10:27;101572.06;;;6.82;100.00
13732;BME280;6937;56.096;12.664;2023-04-30T04:12:52;101578.19;;;6.85;100.00
13732;BME280;6937;56.096;12.664;2023-04-30T04:15:18;101578.19;;;6.85;100.00
13732;BME280;6937;56.096;12.664;2023-04-30T04:17:43;101581.00;;;6.82;100.00
13732;BME280;6937;56.096;12.664;2023-04-30T04:20:09;101581.19;;;6.77;100.00
13732;BME280;6937;56.096;12.664;2023-04-30T04:22:34;101590.91;;;6.78;100.00
13732;BME280;6937;56.096;12.664;2023-04-30T04:25:00;101584.56;;;6.80;100.00
13732;BME280;6937;56.096;12.664;2023-04-30T04:27:25;101591.69;;;6.80;100.00
13732;BME280;6937;56.096;12.664;2023-04-30T04:29:51;101592.59;;;6.79;100.00
13732;BME280;6937;56.096;12.664;2023-04-30T04:32:17;101594.34;;;6.80;100.00
13732;BME280;6937;56.096;12.664;2023-04-30T04:34:42;101597.06;;;6.78;100.00
13732;BME280;6937;56.096;12.664;2023-04-30T04:37:08;101605.09;;;6.77;100.00
13732;BME280;6937;56.096;12.664;2023-04-30T04:39:34;101612.00;;;6.81;100.00
13732;BME280;6937;56.096;12.664;2023-04-30T04:42:01;101607.63;;;6.80;100.00
13732;BME280;6937;56.096;12.664;2023-04-30T04:44:26;101608.34;;;6.84;100.00
13732;BME280;6937;56.096;12.664;2023-04-30T04:46:53;101622.50;;;6.84;100.00
13732;BME280;6937;56.096;12.664;2023-04-30T04:49:18;101618.91;;;6.85;100.00
13732;BME280;6937;56.096;12.664;2023-04-30T04:51:44;101638.44;;;6.84;100.00
13732;BME280;6937;56.096;12.664;2023-04-30T04:54:09;101649.03;;;6.86;100.00
13732;BME280;6937;56.096;12.664;2023-04-30T04:56:34;101654.25;;;6.87;100.00
13732;BME280;6937;56.096;12.664;2023-04-30T04:59:00;101677.19;;;6.90;100.00
13732;BME280;6937;56.096;12.664;2023-04-30T05:01:25;101676.44;;;6.86;100.00
13732;BME280;6937;56.096;12.664;2023-04-30T05:03:51;101665.34;;;6.76;100.00
13732;BME280;6937;56.096;12.664;2023-04-30T05:06:17;101682.31;;;6.72;100.00
13732;BME280;6937;56.096;12.664;2023-04-30T05:08:43;101689.50;;;6.70;100.00
13732;BME280;6937;56.096;12.664;2023-04-30T05:11:08;101696.63;;;6.70;100.00
13732;BME280;6937;56.096;12.664;2023-04-30T05:13:34;101697.47;;;6.70;100.00
13732;BME280;6937;56.096;12.664;2023-04-30T05:16:00;101700.88;;;6.74;100.00
13732;BME280;6937;56.096;12.664;2023-04-30T05:18:25;101712.22;;;6.77;100.00
13732;BME280;6937;56.096;12.664;2023-04-30T05:20:51;101718.94;;;6.86;100.00
13732;BME280;6937;56.096;12.664;2023-04-30T05:23:16;101723.94;;;6.94;100.00
13732;BME280;6937;56.096;12.664;2023-04-30T05:25:42;101726.28;;;7.01;100.00
13732;BME280;6937;56.096;12.664;2023-04-30T05:28:07;101730.81;;;6.99;100.00
13732;BME280;6937;56.096;12.664;2023-04-30T05:30:32;101729.94;;;6.99;100.00
13732;BME280;6937;56.096;12.664;2023-04-30T05:32:58;101733.47;;;6.99;100.00
13732;BME280;6937;56.096;12.664;2023-04-30T05:35:23;101735.06;;;7.03;100.00
13732;BME280;6937;56.096;12.664;2023-04-30T05:37:49;101733.81;;;7.12;100.00
13732;BME280;6937;56.096;12.664;2023-04-30T05:40:14;101741.56;;;7.16;100.00
13732;BME280;6937;56.096;12.664;2023-04-30T05:42:40;101739.03;;;7.13;100.00
13732;BME280;6937;56.096;12.664;2023-04-30T05:45:08;101744.50;;;7.10;100.00
13732;BME280;6937;56.096;12.664;2023-04-30T05:47:34;101750.13;;;7.03;100.00
13732;BME280;6937;56.096;12.664;2023-04-30T05:49:59;101747.84;;;6.94;100.00
13732;BME280;6937;56.096;12.664;2023-04-30T05:52:24;101760.09;;;6.98;100.00
13732;BME280;6937;56.096;12.664;2023-04-30T05:54:50;101754.22;;;7.11;100.00
13732;BME280;6937;56.096;12.664;2023-04-30T05:57:15;101759.94;;;7.22;100.00
13732;BME280;6937;56.096;12.664;2023-04-30T05:59:41;101769.56;;;7.25;100.00
13732;BME280;6937;56.096;12.664;2023-04-30T06:02:06;101769.44;;;7.28;100.00
13732;BME280;6937;56.096;12.664;2023-04-30T06:04:32;101760.47;;;7.31;100.00
13732;BME280;6937;56.096;12.664;2023-04-30T06:06:57;101772.50;;;7.39;100.00
13732;BME280;6937;56.096;12.664;2023-04-30T06:09:23;101783.13;;;7.39;100.00
13732;BME280;6937;56.096;12.664;2023-04-30T06:11:48;101780.41;;;7.41;100.00
13732;BME280;6937;56.096;12.664;2023-04-30T06:14:16;101784.91;;;7.39;100.00
13732;BME280;6937;56.096;12.664;2023-04-30T06:16:44;101777.81;;;7.39;100.00
13732;BME280;6937;56.096;12.664;2023-04-30T06:19:13;101792.16;;;7.35;100.00
13732;BME280;6937;56.096;12.664;2023-04-30T06:21:38;101790.47;;;7.34;100.00
13732;BME280;6937;56.096;12.664;2023-04-30T06:24:04;101785.47;;;7.26;100.00
13732;BME280;6937;56.096;12.664;2023-04-30T06:26:31;101786.38;;;7.25;100.00
13732;BME280;6937;56.096;12.664;2023-04-30T06:28:56;101792.63;;;7.24;100.00
13732;BME280;6937;56.096;12.664;2023-04-30T06:31:22;101805.19;;;7.21;100.00
13732;BME280;6937;56.096;12.664;2023-04-30T06:33:47;101817.50;;;7.23;100.00
13732;BME280;6937;56.096;12.664;2023-04-30T06:36:14;101822.75;;;7.25;100.00
13732;BME280;6937;56.096;12.664;2023-04-30T06:38:39;101817.44;;;7.25;100.00
13732;BME280;6937;56.096;12.664;2023-04-30T06:41:05;101816.38;;;7.29;100.00
13732;BME280;6937;56.096;12.664;2023-04-30T06:43:31;101822.59;;;7.50;100.00
13732;BME280;6937;56.096;12.664;2023-04-30T06:45:56;101821.91;;;7.65;100.00
13732;BME280;6937;56.096;12.664;2023-04-30T06:48:22;101820.97;;;7.66;100.00
13732;BME280;6937;56.096;12.664;2023-04-30T06:50:47;101834.44;;;7.63;100.00
13732;BME280;6937;56.096;12.664;2023-04-30T06:53:13;101831.41;;;7.50;100.00
13732;BME280;6937;56.096;12.664;2023-04-30T06:55:43;101826.69;;;7.37;100.00
13732;BME280;6937;56.096;12.664;2023-04-30T06:58:09;101837.19;;;7.40;100.00
13732;BME280;6937;56.096;12.664;2023-04-30T07:00:34;101824.13;;;7.55;100.00
13732;BME280;6937;56.096;12.664;2023-04-30T07:03:00;101833.75;;;7.58;100.00
13732;BME280;6937;56.096;12.664;2023-04-30T07:05:28;101835.47;;;7.59;100.00
13732;BME280;6937;56.096;12.664;2023-04-30T07:07:53;101833.75;;;7.58;100.00
13732;BME280;6937;56.096;12.664;2023-04-30T07:10:19;101833.56;;;7.62;100.00
13732;BME280;6937;56.096;12.664;2023-04-30T07:12:44;101841.94;;;7.53;100.00
13732;BME280;6937;56.096;12.664;2023-04-30T07:15:10;101855.56;;;7.46;100.00
13732;BME280;6937;56.096;12.664;2023-04-30T07:17:36;101851.03;;;7.48;100.00
13732;BME280;6937;56.096;12.664;2023-04-30T07:20:02;101845.13;;;7.61;100.00
13732;BME280;6937;56.096;12.664;2023-04-30T07:22:29;101862.25;;;7.76;100.00
13732;BME280;6937;56.096;12.664;2023-04-30T07:24:54;101855.84;;;7.80;100.00
13732;BME280;6937;56.096;12.664;2023-04-30T07:27:20;101879.19;;;7.73;100.00
13732;BME280;6937;56.096;12.664;2023-04-30T07:29:45;101874.94;;;7.69;100.00
13732;BME280;6937;56.096;12.664;2023-04-30T07:32:10;101878.59;;;7.67;100.00
13732;BME280;6937;56.096;12.664;2023-04-30T07:34:36;101878.00;;;7.81;100.00
13732;BME280;6937;56.096;12.664;2023-04-30T07:37:01;101875.34;;;7.81;100.00
13732;BME280;6937;56.096;12.664;2023-04-30T07:39:27;101881.63;;;7.80;100.00
13732;BME280;6937;56.096;12.664;2023-04-30T07:41:53;101885.66;;;7.88;100.00
13732;BME280;6937;56.096;12.664;2023-04-30T07:44:18;101875.16;;;8.05;100.00
13732;BME280;6937;56.096;12.664;2023-04-30T07:46:43;101913.69;;;7.97;100.00
13732;BME280;6937;56.096;12.664;2023-04-30T07:49:09;101910.41;;;7.90;100.00
13732;BME280;6937;56.096;12.664;2023-04-30T07:51:34;101901.47;;;7.91;100.00
13732;BME280;6937;56.096;12.664;2023-04-30T07:54:00;101905.75;;;7.95;100.00
13732;BME280;6937;56.096;12.664;2023-04-30T07:56:25;101907.47;;;7.96;100.00
13732;BME280;6937;56.096;12.664;2023-04-30T07:58:51;101915.81;;;7.89;100.00
13732;BME280;6937;56.096;12.664;2023-04-30T08:01:16;101900.84;;;7.86;100.00
13732;BME280;6937;56.096;12.664;2023-04-30T08:03:42;101910.34;;;7.92;100.00
13732;BME280;6937;56.096;12.664;2023-04-30T08:06:07;101908.69;;;7.89;100.00
13732;BME280;6937;56.096;12.664;2023-04-30T08:08:32;101913.22;;;7.87;100.00
13732;BME280;6937;56.096;12.664;2023-04-30T08:10:58;101911.53;;;7.85;100.00
13732;BME280;6937;56.096;12.664;2023-04-30T08:13:23;101924.97;;;7.82;100.00
13732;BME280;6937;56.096;12.664;2023-04-30T08:15:49;101930.16;;;7.85;100.00
13732;BME280;6937;56.096;12.664;2023-04-30T08:18:14;101922.38;;;7.80;100.00
13732;BME280;6937;56.096;12.664;2023-04-30T08:20:40;101924.78;;;7.86;100.00
13732;BME280;6937;56.096;12.664;2023-04-30T08:23:06;101909.22;;;7.97;100.00
13732;BME280;6937;56.096;12.664;2023-04-30T08:25:31;101899.34;;;7.99;100.00
13732;BME280;6937;56.096;12.664;2023-04-30T08:27:57;101920.19;;;8.10;100.00
13732;BME280;6937;56.096;12.664;2023-04-30T08:30:22;101916.19;;;8.00;100.00
13732;BME280;6937;56.096;12.664;2023-04-30T08:32:49;101915.41;;;7.98;100.00
13732;BME280;6937;56.096;12.664;2023-04-30T08:35:15;101919.19;;;7.92;100.00
13732;BME280;6937;56.096;12.664;2023-04-30T08:37:43;101919.34;;;7.89;100.00
13732;BME280;6937;56.096;12.664;2023-04-30T08:40:09;101903.22;;;7.92;100.00
13732;BME280;6937;56.096;12.664;2023-04-30T08:42:37;101902.03;;;7.99;100.00
13732;BME280;6937;56.096;12.664;2023-04-30T08:45:07;101898.16;;;8.06;100.00
13732;BME280;6937;56.096;12.664;2023-04-30T08:47:36;101901.78;;;8.05;100.00
13732;BME280;6937;56.096;12.664;2023-04-30T08:50:03;101905.94;;;8.11;100.00
13732;BME280;6937;56.096;12.664;2023-04-30T08:52:28;101906.53;;;8.17;100.00
13732;BME280;6937;56.096;12.664;2023-04-30T08:54:56;101905.56;;;8.20;100.00
13732;BME280;6937;56.096;12.664;2023-04-30T08:57:22;101907.22;;;8.22;100.00
13732;BME280;6937;56.096;12.664;2023-04-30T08:59:48;101904.63;;;8.21;100.00
13732;BME280;6937;56.096;12.664;2023-04-30T09:02:13;101918.78;;;8.21;100.00
13732;BME280;6937;56.096;12.664;2023-04-30T09:04:39;101916.44;;;8.36;100.00
13732;BME280;6937;56.096;12.664;2023-04-30T09:07:04;101927.81;;;8.39;100.00
13732;BME280;6937;56.096;12.664;2023-04-30T09:09:37;101910.00;;;8.19;100.00
13732;BME280;6937;56.096;12.664;2023-04-30T09:12:12;101930.16;;;8.25;100.00
13732;BME280;6937;56.096;12.664;2023-04-30T09:14:39;101930.00;;;8.50;100.00
13732;BME280;6937;56.096;12.664;2023-04-30T09:17:05;101931.94;;;8.46;100.00
13732;BME280;6937;56.096;12.664;2023-04-30T09:19:30;101947.38;;;8.38;100.00
13732;BME280;6937;56.096;12.664;2023-04-30T09:21:56;101944.44;;;8.24;100.00
13732;BME280;6937;56.096;12.664;2023-04-30T09:24:22;101954.66;;;8.35;100.00
13732;BME280;6937;56.096;12.664;2023-04-30T09:26:48;101953.03;;;8.51;100.00
13732;BME280;6937;56.096;12.664;2023-04-30T09:29:15;101955.44;;;8.76;100.00
13732;BME280;6937;56.096;12.664;2023-04-30T09:31:43;101949.47;;;8.89;100.00
13732;BME280;6937;56.096;12.664;2023-04-30T09:34:09;101970.06;;;8.86;100.00
13732;BME280;6937;56.096;12.664;2023-04-30T09:36:35;101976.84;;;8.74;100.00
13732;BME280;6937;56.096;12.664;2023-04-30T09:39:11;101982.22;;;8.54;100.00
13732;BME280;6937;56.096;12.664;2023-04-30T09:41:37;101987.69;;;8.51;100.00
13732;BME280;6937;56.096;12.664;2023-04-30T09:44:03;102003.78;;;8.48;100.00
13732;BME280;6937;56.096;12.664;2023-04-30T09:46:30;102012.97;;;8.41;100.00
13732;BME280;6937;56.096;12.664;2023-04-30T09:48:58;101999.78;;;8.38;100.00
13732;BME280;6937;56.096;12.664;2023-04-30T09:51:23;101997.19;;;8.36;100.00
13732;BME280;6937;56.096;12.664;2023-04-30T09:53:49;102003.53;;;8.34;100.00
13732;BME280;6937;56.096;12.664;2023-04-30T09:56:19;101987.16;;;8.43;100.00
13732;BME280;6937;56.096;12.664;2023-04-30T09:58:49;101984.88;;;8.54;100.00
13732;BME280;6937;56.096;12.664;2023-04-30T10:01:16;101994.25;;;8.62;100.00
13732;BME280;6937;56.096;12.664;2023-04-30T10:03:42;101984.72;;;8.57;100.00
13732;BME280;6937;56.096;12.664;2023-04-30T10:06:12;101978.28;;;8.42;100.00
13732;BME280;6937;56.096;12.664;2023-04-30T10:08:54;101970.59;;;8.55;100.00
13732;BME280;6937;56.096;12.664;2023-04-30T10:11:22;101970.88;;;8.69;100.00
13732;BME280;6937;56.096;12.664;2023-04-30T10:14:03;101965.72;;;8.85;100.00
13732;BME280;6937;56.096;12.664;2023-04-30T10:16:41;101979.31;;;8.97;100.00
13732;BME280;6937;56.096;12.664;2023-04-30T10:19:24;101991.44;;;9.04;100.00
13732;BME280;6937;56.096;12.664;2023-04-30T10:21:50;101990.28;;;9.10;100.00
13732;BME280;6937;56.096;12.664;2023-04-30T10:24:18;101984.97;;;9.29;100.00
13732;BME280;6937;56.096;12.664;2023-04-30T10:26:45;101984.50;;;9.38;100.00
13732;BME280;6937;56.096;12.664;2023-04-30T10:29:12;101986.22;;;9.39;100.00
13732;BME280;6937;56.096;12.664;2023-04-30T10:31:40;101986.59;;;9.31;100.00
13732;BME280;6937;56.096;12.664;2023-04-30T10:37:39;101988.28;;;9.69;100.00
13732;BME280;6937;56.096;12.664;2023-04-30T10:40:08;102004.53;;;9.65;100.00
13732;BME280;6937;56.096;12.664;2023-04-30T10:42:34;101995.22;;;9.74;100.00
13732;BME280;6937;56.096;12.664;2023-04-30T10:45:01;102001.91;;;9.82;100.00
13732;BME280;6937;56.096;12.664;2023-04-30T10:47:28;102008.38;;;9.59;100.00
13732;BME280;6937;56.096;12.664;2023-04-30T10:50:02;101993.31;;;9.40;100.00
13732;BME280;6937;56.096;12.664;2023-04-30T10:52:28;102007.22;;;9.28;100.00
13732;BME280;6937;56.096;12.664;2023-04-30T10:54:54;102005.84;;;9.38;100.00
13732;BME280;6937;56.096;12.664;2023-04-30T10:57:20;102012.41;;;9.49;100.00
13732;BME280;6937;56.096;12.664;2023-04-30T11:00:16;102020.19;;;9.54;100.00
13732;BME280;6937;56.096;12.664;2023-04-30T11:02:43;102025.03;;;9.46;100.00
13732;BME280;6937;56.096;12.664;2023-04-30T11:05:16;102022.28;;;9.66;100.00
13732;BME280;6937;56.096;12.664;2023-04-30T11:07:56;102016.34;;;9.78;100.00
13732;BME280;6937;56.096;12.664;2023-04-30T11:10:24;102028.53;;;9.84;100.00
13732;BME280;6937;56.096;12.664;2023-04-30T11:12:52;102033.22;;;9.79;100.00
13732;BME280;6937;56.096;12.664;2023-04-30T11:15:25;102024.78;;;9.69;100.00
13732;BME280;6937;56.096;12.664;2023-04-30T11:17:56;102023.00;;;9.69;100.00
13732;BME280;6937;56.096;12.664;2023-04-30T11:20:24;102034.09;;;9.60;100.00
13732;BME280;6937;56.096;12.664;2023-04-30T11:25:46;102029.25;;;9.68;100.00
13732;BME280;6937;56.096;12.664;2023-04-30T11:28:21;102040.44;;;9.77;100.00
13732;BME280;6937;56.096;12.664;2023-04-30T11:30:57;102026.88;;;9.81;100.00
13732;BME280;6937;56.096;12.664;2023-04-30T11:33:25;102036.06;;;9.57;100.00
13732;BME280;6937;56.096;12.664;2023-04-30T11:35:52;102035.84;;;9.43;100.00
13732;BME280;6937;56.096;12.664;2023-04-30T11:38:25;102047.09;;;9.49;100.00
13732;BME280;6937;56.096;12.664;2023-04-30T11:40:51;102033.47;;;9.55;100.00
13732;BME280;6937;56.096;12.664;2023-04-30T11:43:29;102051.63;;;9.85;100.00
13732;BME280;6937;56.096;12.664;2023-04-30T11:46:14;102034.66;;;9.86;100.00
13732;BME280;6937;56.096;12.664;2023-04-30T11:48:43;102043.28;;;9.91;100.00
13732;BME280;6937;56.096;12.664;2023-04-30T11:51:21;102042.06;;;9.98;100.00
13732;BME280;6937;56.096;12.664;2023-04-30T11:53:51;102047.00;;;9.88;100.00
13732;BME280;6937;56.096;12.664;2023-04-30T11:56:18;102041.66;;;9.88;100.00
13732;BME280;6937;56.096;12.664;2023-04-30T11:58:46;102043.50;;;9.86;100.00
13732;BME280;6937;56.096;12.664;2023-04-30T12:01:11;102043.31;;;9.72;100.00
13732;BME280;6937;56.096;12.664;2023-04-30T12:03:45;102062.38;;;9.64;100.00
13732;BME280;6937;56.096;12.664;2023-04-30T12:06:25;102058.34;;;9.75;100.00
13732;BME280;6937;56.096;12.664;2023-04-30T12:08:55;102061.66;;;9.80;100.00
13732;BME280;6937;56.096;12.664;2023-04-30T12:11:25;102059.63;;;9.85;100.00
13732;BME280;6937;56.096;12.664;2023-04-30T12:13:56;102059.78;;;9.82;100.00
13732;BME280;6937;56.096;12.664;2023-04-30T12:16:27;102067.66;;;9.66;100.00
13732;BME280;6937;56.096;12.664;2023-04-30T12:18:52;102072.63;;;9.92;100.00
13732;BME280;6937;56.096;12.664;2023-04-30T12:21:19;102085.66;;;9.98;100.00
13732;BME280;6937;56.096;12.664;2023-04-30T12:23:46;102080.47;;;9.95;100.00
13732;BME280;6937;56.096;12.664;2023-04-30T12:26:11;102087.09;;;10.05;100.00
13732;BME280;6937;56.096;12.664;2023-04-30T12:28:37;102088.09;;;10.39;100.00
13732;BME280;6937;56.096;12.664;2023-04-30T12:31:03;102077.41;;;10.39;100.00
13732;BME280;6937;56.096;12.664;2023-04-30T12:33:31;102078.22;;;10.41;100.00
13732;BME280;6937;56.096;12.664;2023-04-30T12:35:56;102089.41;;;10.49;100.00
13732;BME280;6937;56.096;12.664;2023-04-30T12:38:23;102087.19;;;10.57;100.00
13732;BME280;6937;56.096;12.664;2023-04-30T12:40:48;102087.34;;;10.71;100.00
13732;BME280;6937;56.096;12.664;2023-04-30T12:43:15;102063.75;;;10.62;100.00
13732;BME280;6937;56.096;12.664;2023-04-30T12:45:51;102062.97;;;10.43;100.00
13732;BME280;6937;56.096;12.664;2023-04-30T12:48:20;102070.97;;;10.43;100.00
13732;BME280;6937;56.096;12.664;2023-04-30T12:50:51;102080.09;;;10.39;100.00
13732;BME280;6937;56.096;12.664;2023-04-30T12:53:18;102082.16;;;10.34;100.00
13732;BME280;6937;56.096;12.664;2023-04-30T12:55:43;102088.38;;;10.34;100.00
13732;BME280;6937;56.096;12.664;2023-04-30T12:58:10;102083.88;;;10.35;100.00
13732;BME280;6937;56.096;12.664;2023-04-30T13:03:10;102091.84;;;10.53;100.00
13732;BME280;6937;56.096;12.664;2023-04-30T13:05:35;102087.09;;;10.58;100.00
13732;BME280;6937;56.096;12.664;2023-04-30T13:08:01;102081.34;;;10.66;100.00
13732;BME280;6937;56.096;12.664;2023-04-30T13:10:28;102076.47;;;10.74;100.00